Archival Weather

Agadez

Agadez, Niger (DRZA)

Report from: Thursday, September 21, 2023 3:00 PM WAT
Current time: Friday, February 23, 2024 8:48 PM WAT

Current weather – Weather history – Daily summaries
Weather forecast

Temperature40.0°C (104.0°F)
Heat index38.4°C (101.2°F)
Dew point10.0°C (50.0°F)
Winds 4 kts (2.1 m/s, 4.6 mph) East-Northeast (60°)
Clouds Sky clear
Altimeter29.83 in.Hg (1010 mB)
Relative humidity17 %
Density altitude3,093 ft. (943 m)
Remarks Ceiling and visibility OK
Flight conditions Visual Meteorological Conditions
Raw dataDRZA 211400Z 06004KT CAVOK 40/10 Q1010
An error has occurred. This application may no longer respond until reloaded. Reload 🗙